PKWA/KWA METAR and TAF weather

Enter ICAO airport designator
Station Type Date Time Source
PKWA METAR 2022/05/23 14:20 UTC NOAA

PKWA 231420Z AUTO 07011KT 10SM SCT047 A2988 RMK AO2 LTG DSNT SE AND NW


Station Type Date Time Source
PKWA Decoded METAR 2022/05/23 14:20 UTC NOAA

Kwajalein, Bucholz AAF, Kwajalein KMR ATOL Airport, Marshall Islands (PKWA) 08-43N 167-44E 2M
May 23, 2022 - 10:20 AM EDT / 2022.05.23 1420 UTC
Wind: from the ENE (070 degrees) at 13 MPH (11 KT):0
Visibility: 10 mile(s):0
Sky conditions: partly cloudy
Weather: Lightning observed
Pressure (altimeter): 29.88 in. Hg (1011 hPa)
ob: PKWA 231420Z AUTO 07011KT 10SM SCT047 A2988 RMK AO2 LTG DSNT SE AND NW
cycle: 14

Station Type Date Time Source
PKWA TAF 2022/05/23 12:27 UTC NOAA

TAF PKWA 231120Z 2312/2412 10013KT P6SM VCSH SCT016 BKN150

Example: see airport list